sensor_id;sensor_type;location;lat;lon;timestamp;temperature;humidity
43920;DHT22;29578;51.946;5.874;2023-03-19T00:00:27;11.90;79.50
43920;DHT22;29578;51.946;5.874;2023-03-19T00:02:52;11.80;79.60
43920;DHT22;29578;51.946;5.874;2023-03-19T00:05:18;11.80;79.80
43920;DHT22;29578;51.946;5.874;2023-03-19T00:07:44;11.70;80.00
43920;DHT22;29578;51.946;5.874;2023-03-19T00:10:09;11.60;80.10
43920;DHT22;29578;51.946;5.874;2023-03-19T00:12:35;11.60;80.20
43920;DHT22;29578;51.946;5.874;2023-03-19T00:15:01;11.50;80.30
43920;DHT22;29578;51.946;5.874;2023-03-19T00:17:26;11.60;80.60
43920;DHT22;29578;51.946;5.874;2023-03-19T00:19:52;11.50;80.60
43920;DHT22;29578;51.946;5.874;2023-03-19T00:22:17;11.50;80.70
43920;DHT22;29578;51.946;5.874;2023-03-19T00:24:43;11.50;80.80
43920;DHT22;29578;51.946;5.874;2023-03-19T00:27:09;11.50;80.90
43920;DHT22;29578;51.946;5.874;2023-03-19T00:29:34;11.40;81.00
43920;DHT22;29578;51.946;5.874;2023-03-19T00:32:00;11.40;81.00
43920;DHT22;29578;51.946;5.874;2023-03-19T00:34:26;11.40;81.10
43920;DHT22;29578;51.946;5.874;2023-03-19T00:36:52;11.40;81.20
43920;DHT22;29578;51.946;5.874;2023-03-19T00:39:18;11.30;81.80
43920;DHT22;29578;51.946;5.874;2023-03-19T00:41:44;11.30;81.30
43920;DHT22;29578;51.946;5.874;2023-03-19T00:44:15;11.30;81.40
43920;DHT22;29578;51.946;5.874;2023-03-19T00:46:41;11.20;81.40
43920;DHT22;29578;51.946;5.874;2023-03-19T00:49:06;11.20;81.50
43920;DHT22;29578;51.946;5.874;2023-03-19T00:51:32;11.30;81.50
43920;DHT22;29578;51.946;5.874;2023-03-19T00:53:57;11.20;81.50
43920;DHT22;29578;51.946;5.874;2023-03-19T00:56:23;11.20;81.50
43920;DHT22;29578;51.946;5.874;2023-03-19T00:58:48;11.20;81.40
43920;DHT22;29578;51.946;5.874;2023-03-19T01:01:15;11.20;81.50
43920;DHT22;29578;51.946;5.874;2023-03-19T01:03:41;11.20;81.50
43920;DHT22;29578;51.946;5.874;2023-03-19T01:06:07;11.20;81.50
43920;DHT22;29578;51.946;5.874;2023-03-19T01:08:32;11.20;81.50
43920;DHT22;29578;51.946;5.874;2023-03-19T01:13:36;11.20;81.60
43920;DHT22;29578;51.946;5.874;2023-03-19T01:16:02;11.10;82.20
43920;DHT22;29578;51.946;5.874;2023-03-19T01:18:28;11.00;81.60
43920;DHT22;29578;51.946;5.874;2023-03-19T01:20:54;11.20;81.80
43920;DHT22;29578;51.946;5.874;2023-03-19T01:23:19;11.10;81.70
43920;DHT22;29578;51.946;5.874;2023-03-19T01:25:45;11.10;81.70
43920;DHT22;29578;51.946;5.874;2023-03-19T01:28:10;11.10;81.80
43920;DHT22;29578;51.946;5.874;2023-03-19T01:30:36;11.10;81.80
43920;DHT22;29578;51.946;5.874;2023-03-19T01:33:01;11.00;81.70
43920;DHT22;29578;51.946;5.874;2023-03-19T01:35:27;11.10;81.80
43920;DHT22;29578;51.946;5.874;2023-03-19T01:37:53;11.00;81.90
43920;DHT22;29578;51.946;5.874;2023-03-19T01:40:18;11.00;81.90
43920;DHT22;29578;51.946;5.874;2023-03-19T01:45:33;10.90;82.00
43920;DHT22;29578;51.946;5.874;2023-03-19T01:47:59;10.90;82.10
43920;DHT22;29578;51.946;5.874;2023-03-19T01:50:28;10.90;82.20
43920;DHT22;29578;51.946;5.874;2023-03-19T01:52:55;10.90;82.30
43920;DHT22;29578;51.946;5.874;2023-03-19T01:55:21;10.80;82.20
43920;DHT22;29578;51.946;5.874;2023-03-19T01:57:46;10.90;82.30
43920;DHT22;29578;51.946;5.874;2023-03-19T02:00:12;10.80;82.20
43920;DHT22;29578;51.946;5.874;2023-03-19T02:02:38;10.80;82.20
43920;DHT22;29578;51.946;5.874;2023-03-19T02:05:07;10.80;82.20
43920;DHT22;29578;51.946;5.874;2023-03-19T02:07:34;10.80;82.20
43920;DHT22;29578;51.946;5.874;2023-03-19T02:10:01;10.80;82.30
43920;DHT22;29578;51.946;5.874;2023-03-19T02:12:27;10.80;82.40
43920;DHT22;29578;51.946;5.874;2023-03-19T02:14:53;10.80;82.90
43920;DHT22;29578;51.946;5.874;2023-03-19T02:17:19;10.80;82.30
43920;DHT22;29578;51.946;5.874;2023-03-19T02:19:48;10.80;82.30
43920;DHT22;29578;51.946;5.874;2023-03-19T02:22:15;10.80;82.30
43920;DHT22;29578;51.946;5.874;2023-03-19T02:24:49;10.90;82.30
43920;DHT22;29578;51.946;5.874;2023-03-19T02:27:16;10.80;82.20
43920;DHT22;29578;51.946;5.874;2023-03-19T02:29:42;10.80;82.20
43920;DHT22;29578;51.946;5.874;2023-03-19T02:32:07;10.80;82.20
43920;DHT22;29578;51.946;5.874;2023-03-19T02:34:36;10.80;82.20
43920;DHT22;29578;51.946;5.874;2023-03-19T02:37:04;10.90;82.30
43920;DHT22;29578;51.946;5.874;2023-03-19T02:39:33;10.90;82.30
43920;DHT22;29578;51.946;5.874;2023-03-19T02:42:00;10.90;82.30
43920;DHT22;29578;51.946;5.874;2023-03-19T02:44:26;10.80;82.30
43920;DHT22;29578;51.946;5.874;2023-03-19T02:46:52;10.90;82.40
43920;DHT22;29578;51.946;5.874;2023-03-19T02:49:17;10.90;82.40
43920;DHT22;29578;51.946;5.874;2023-03-19T02:51:43;10.80;82.40
43920;DHT22;29578;51.946;5.874;2023-03-19T02:54:08;10.90;82.40
43920;DHT22;29578;51.946;5.874;2023-03-19T02:56:34;10.80;82.40
43920;DHT22;29578;51.946;5.874;2023-03-19T02:59:00;10.80;82.40
43920;DHT22;29578;51.946;5.874;2023-03-19T03:01:26;10.80;82.40
43920;DHT22;29578;51.946;5.874;2023-03-19T03:03:51;10.80;82.50
43920;DHT22;29578;51.946;5.874;2023-03-19T03:06:17;10.80;82.50
43920;DHT22;29578;51.946;5.874;2023-03-19T03:08:42;10.80;82.50
43920;DHT22;29578;51.946;5.874;2023-03-19T03:11:08;10.80;82.50
43920;DHT22;29578;51.946;5.874;2023-03-19T03:13:34;10.80;82.50
43920;DHT22;29578;51.946;5.874;2023-03-19T03:16:00;10.90;82.60
43920;DHT22;29578;51.946;5.874;2023-03-19T03:18:26;10.80;83.10
43920;DHT22;29578;51.946;5.874;2023-03-19T03:20:51;10.90;82.60
43920;DHT22;29578;51.946;5.874;2023-03-19T03:23:18;10.80;82.50
43920;DHT22;29578;51.946;5.874;2023-03-19T03:25:44;10.80;82.60
43920;DHT22;29578;51.946;5.874;2023-03-19T03:28:09;10.80;82.60
43920;DHT22;29578;51.946;5.874;2023-03-19T03:30:36;10.80;82.60
43920;DHT22;29578;51.946;5.874;2023-03-19T03:33:02;10.80;82.70
43920;DHT22;29578;51.946;5.874;2023-03-19T03:35:27;10.80;82.70
43920;DHT22;29578;51.946;5.874;2023-03-19T03:37:53;10.80;82.80
43920;DHT22;29578;51.946;5.874;2023-03-19T03:40:18;10.80;82.90
43920;DHT22;29578;51.946;5.874;2023-03-19T03:42:44;10.80;82.90
43920;DHT22;29578;51.946;5.874;2023-03-19T03:45:10;10.80;83.00
43920;DHT22;29578;51.946;5.874;2023-03-19T03:47:36;10.80;83.00
43920;DHT22;29578;51.946;5.874;2023-03-19T03:50:02;10.70;83.00
43920;DHT22;29578;51.946;5.874;2023-03-19T03:52:29;10.70;83.00
43920;DHT22;29578;51.946;5.874;2023-03-19T03:54:56;10.80;83.10
43920;DHT22;29578;51.946;5.874;2023-03-19T03:57:23;10.70;83.00
43920;DHT22;29578;51.946;5.874;2023-03-19T03:59:48;10.70;83.10
43920;DHT22;29578;51.946;5.874;2023-03-19T04:02:14;10.70;83.20
43920;DHT22;29578;51.946;5.874;2023-03-19T04:04:40;10.70;83.20
43920;DHT22;29578;51.946;5.874;2023-03-19T04:07:06;10.70;83.30
43920;DHT22;29578;51.946;5.874;2023-03-19T04:09:31;10.60;83.30
43920;DHT22;29578;51.946;5.874;2023-03-19T04:11:57;10.70;83.40
43920;DHT22;29578;51.946;5.874;2023-03-19T04:14:22;10.70;83.50
43920;DHT22;29578;51.946;5.874;2023-03-19T04:16:48;10.60;83.50
43920;DHT22;29578;51.946;5.874;2023-03-19T04:19:13;10.60;83.60
43920;DHT22;29578;51.946;5.874;2023-03-19T04:21:39;10.60;83.60
43920;DHT22;29578;51.946;5.874;2023-03-19T04:24:05;10.50;83.70
43920;DHT22;29578;51.946;5.874;2023-03-19T04:26:31;10.50;83.90
43920;DHT22;29578;51.946;5.874;2023-03-19T04:28:57;10.40;83.90
43920;DHT22;29578;51.946;5.874;2023-03-19T04:31:23;10.40;84.60
43920;DHT22;29578;51.946;5.874;2023-03-19T04:33:48;10.40;84.10
43920;DHT22;29578;51.946;5.874;2023-03-19T04:36:14;10.40;84.20
43920;DHT22;29578;51.946;5.874;2023-03-19T04:38:39;10.30;84.30
43920;DHT22;29578;51.946;5.874;2023-03-19T04:41:05;10.20;84.30
43920;DHT22;29578;51.946;5.874;2023-03-19T04:43:31;10.20;84.40
43920;DHT22;29578;51.946;5.874;2023-03-19T04:45:57;10.20;84.50
43920;DHT22;29578;51.946;5.874;2023-03-19T04:48:22;10.10;84.60
43920;DHT22;29578;51.946;5.874;2023-03-19T04:50:48;10.10;84.60
43920;DHT22;29578;51.946;5.874;2023-03-19T04:53:16;10.10;84.60
43920;DHT22;29578;51.946;5.874;2023-03-19T04:55:42;10.10;84.70
43920;DHT22;29578;51.946;5.874;2023-03-19T04:58:08;10.10;84.60
43920;DHT22;29578;51.946;5.874;2023-03-19T05:00:33;10.10;84.50
43920;DHT22;29578;51.946;5.874;2023-03-19T05:02:59;10.20;84.50
43920;DHT22;29578;51.946;5.874;2023-03-19T05:05:25;10.20;84.40
43920;DHT22;29578;51.946;5.874;2023-03-19T05:07:50;10.20;84.30
43920;DHT22;29578;51.946;5.874;2023-03-19T05:10:16;10.10;84.30
43920;DHT22;29578;51.946;5.874;2023-03-19T05:12:41;10.10;84.20
43920;DHT22;29578;51.946;5.874;2023-03-19T05:15:07;10.10;84.20
43920;DHT22;29578;51.946;5.874;2023-03-19T05:17:33;10.20;84.30
43920;DHT22;29578;51.946;5.874;2023-03-19T05:20:00;10.20;84.30
43920;DHT22;29578;51.946;5.874;2023-03-19T05:22:26;10.20;84.20
43920;DHT22;29578;51.946;5.874;2023-03-19T05:24:52;10.30;84.20
43920;DHT22;29578;51.946;5.874;2023-03-19T05:27:17;10.30;84.10
43920;DHT22;29578;51.946;5.874;2023-03-19T05:29:43;10.30;84.10
43920;DHT22;29578;51.946;5.874;2023-03-19T05:32:08;10.30;84.00
43920;DHT22;29578;51.946;5.874;2023-03-19T05:34:34;10.40;84.00
43920;DHT22;29578;51.946;5.874;2023-03-19T05:37:00;10.30;83.90
43920;DHT22;29578;51.946;5.874;2023-03-19T05:39:25;10.30;83.90
43920;DHT22;29578;51.946;5.874;2023-03-19T05:41:51;10.40;83.90
43920;DHT22;29578;51.946;5.874;2023-03-19T05:44:17;10.40;83.90
43920;DHT22;29578;51.946;5.874;2023-03-19T05:46:42;10.30;83.90
43920;DHT22;29578;51.946;5.874;2023-03-19T05:49:08;10.40;83.90
43920;DHT22;29578;51.946;5.874;2023-03-19T05:51:34;10.40;83.90
43920;DHT22;29578;51.946;5.874;2023-03-19T05:54:00;10.40;83.90
43920;DHT22;29578;51.946;5.874;2023-03-19T05:56:26;10.40;83.90
43920;DHT22;29578;51.946;5.874;2023-03-19T05:58:51;10.40;83.90
43920;DHT22;29578;51.946;5.874;2023-03-19T06:01:17;10.40;83.90
43920;DHT22;29578;51.946;5.874;2023-03-19T06:03:42;10.40;83.90
43920;DHT22;29578;51.946;5.874;2023-03-19T06:06:08;10.40;83.90
43920;DHT22;29578;51.946;5.874;2023-03-19T06:08:33;10.40;84.00
43920;DHT22;29578;51.946;5.874;2023-03-19T06:10:59;10.40;84.10
43920;DHT22;29578;51.946;5.874;2023-03-19T06:13:25;10.30;84.10
43920;DHT22;29578;51.946;5.874;2023-03-19T06:15:51;10.40;84.10
43920;DHT22;29578;51.946;5.874;2023-03-19T06:18:16;10.40;84.10
43920;DHT22;29578;51.946;5.874;2023-03-19T06:20:43;10.40;84.10
43920;DHT22;29578;51.946;5.874;2023-03-19T06:23:08;10.40;84.10
43920;DHT22;29578;51.946;5.874;2023-03-19T06:25:34;10.50;84.10
43920;DHT22;29578;51.946;5.874;2023-03-19T06:28:00;10.60;84.20
43920;DHT22;29578;51.946;5.874;2023-03-19T06:30:25;10.50;84.20
43920;DHT22;29578;51.946;5.874;2023-03-19T06:32:51;10.50;84.20
43920;DHT22;29578;51.946;5.874;2023-03-19T06:35:16;10.40;84.10
43920;DHT22;29578;51.946;5.874;2023-03-19T06:37:42;10.60;84.20
43920;DHT22;29578;51.946;5.874;2023-03-19T06:40:08;10.50;84.20
43920;DHT22;29578;51.946;5.874;2023-03-19T06:42:34;10.50;84.10
43920;DHT22;29578;51.946;5.874;2023-03-19T06:44:59;10.50;84.10
43920;DHT22;29578;51.946;5.874;2023-03-19T06:47:25;10.60;84.10
43920;DHT22;29578;51.946;5.874;2023-03-19T06:49:51;10.60;84.10
43920;DHT22;29578;51.946;5.874;2023-03-19T06:52:16;10.60;84.10
43920;DHT22;29578;51.946;5.874;2023-03-19T06:54:42;10.60;84.10
43920;DHT22;29578;51.946;5.874;2023-03-19T06:57:08;10.70;84.10
43920;DHT22;29578;51.946;5.874;2023-03-19T06:59:33;10.60;84.10
43920;DHT22;29578;51.946;5.874;2023-03-19T07:01:59;10.70;84.10
43920;DHT22;29578;51.946;5.874;2023-03-19T07:04:24;10.70;84.00
43920;DHT22;29578;51.946;5.874;2023-03-19T07:06:50;10.70;84.00
43920;DHT22;29578;51.946;5.874;2023-03-19T07:09:15;10.80;84.00
43920;DHT22;29578;51.946;5.874;2023-03-19T07:11:41;10.80;84.00
43920;DHT22;29578;51.946;5.874;2023-03-19T07:14:07;10.70;84.00
43920;DHT22;29578;51.946;5.874;2023-03-19T07:16:32;10.80;84.00
43920;DHT22;29578;51.946;5.874;2023-03-19T07:18:58;10.80;84.00
43920;DHT22;29578;51.946;5.874;2023-03-19T07:21:23;10.90;84.00
43920;DHT22;29578;51.946;5.874;2023-03-19T07:23:49;10.90;83.80
43920;DHT22;29578;51.946;5.874;2023-03-19T07:26:15;10.90;83.70
43920;DHT22;29578;51.946;5.874;2023-03-19T07:28:41;11.00;83.90
43920;DHT22;29578;51.946;5.874;2023-03-19T07:31:06;11.00;83.90
43920;DHT22;29578;51.946;5.874;2023-03-19T07:33:32;11.00;83.90
43920;DHT22;29578;51.946;5.874;2023-03-19T07:35:57;11.00;83.80
43920;DHT22;29578;51.946;5.874;2023-03-19T07:38:23;11.00;83.80
43920;DHT22;29578;51.946;5.874;2023-03-19T07:40:48;11.00;83.80
43920;DHT22;29578;51.946;5.874;2023-03-19T07:43:14;11.10;83.80
43920;DHT22;29578;51.946;5.874;2023-03-19T07:45:40;11.10;83.70
43920;DHT22;29578;51.946;5.874;2023-03-19T07:48:05;11.30;83.80
43920;DHT22;29578;51.946;5.874;2023-03-19T07:50:31;11.20;83.60
43920;DHT22;29578;51.946;5.874;2023-03-19T07:52:56;11.20;83.60
43920;DHT22;29578;51.946;5.874;2023-03-19T07:55:22;11.20;83.70
43920;DHT22;29578;51.946;5.874;2023-03-19T07:57:48;11.30;83.80
43920;DHT22;29578;51.946;5.874;2023-03-19T08:00:13;11.30;83.70
43920;DHT22;29578;51.946;5.874;2023-03-19T08:02:39;11.30;83.60
43920;DHT22;29578;51.946;5.874;2023-03-19T08:05:07;11.40;83.50
43920;DHT22;29578;51.946;5.874;2023-03-19T08:07:33;11.40;83.40
43920;DHT22;29578;51.946;5.874;2023-03-19T08:09:58;11.40;83.40
43920;DHT22;29578;51.946;5.874;2023-03-19T08:12:24;11.50;83.60
43920;DHT22;29578;51.946;5.874;2023-03-19T08:14:49;11.50;83.70
43920;DHT22;29578;51.946;5.874;2023-03-19T08:17:15;11.60;83.70
43920;DHT22;29578;51.946;5.874;2023-03-19T08:19:41;11.60;83.50
43920;DHT22;29578;51.946;5.874;2023-03-19T08:22:07;11.70;83.40
43920;DHT22;29578;51.946;5.874;2023-03-19T08:24:33;11.70;83.40
43920;DHT22;29578;51.946;5.874;2023-03-19T08:26:58;11.80;83.30
43920;DHT22;29578;51.946;5.874;2023-03-19T08:29:24;11.70;83.30
43920;DHT22;29578;51.946;5.874;2023-03-19T08:31:53;11.80;83.30
43920;DHT22;29578;51.946;5.874;2023-03-19T08:34:19;11.80;83.20
43920;DHT22;29578;51.946;5.874;2023-03-19T08:36:45;12.00;83.40
43920;DHT22;29578;51.946;5.874;2023-03-19T08:39:10;12.10;83.20
43920;DHT22;29578;51.946;5.874;2023-03-19T08:41:36;12.20;83.00
43920;DHT22;29578;51.946;5.874;2023-03-19T08:44:01;12.30;82.70
43920;DHT22;29578;51.946;5.874;2023-03-19T08:46:27;12.30;82.70
43920;DHT22;29578;51.946;5.874;2023-03-19T08:48:53;12.50;82.50
43920;DHT22;29578;51.946;5.874;2023-03-19T08:51:19;12.50;82.40
43920;DHT22;29578;51.946;5.874;2023-03-19T08:53:45;12.60;82.20
43920;DHT22;29578;51.946;5.874;2023-03-19T08:56:10;12.50;82.90
43920;DHT22;29578;51.946;5.874;2023-03-19T08:58:36;12.60;82.40
43920;DHT22;29578;51.946;5.874;2023-03-19T09:01:02;12.40;82.50
43920;DHT22;29578;51.946;5.874;2023-03-19T09:03:28;12.50;82.80
43920;DHT22;29578;51.946;5.874;2023-03-19T09:06:02;12.30;82.80
43920;DHT22;29578;51.946;5.874;2023-03-19T09:08:29;12.30;83.10
43920;DHT22;29578;51.946;5.874;2023-03-19T09:10:55;12.40;83.40
43920;DHT22;29578;51.946;5.874;2023-03-19T09:13:21;12.20;83.40
43920;DHT22;29578;51.946;5.874;2023-03-19T09:15:46;12.30;83.50
43920;DHT22;29578;51.946;5.874;2023-03-19T09:18:12;12.30;83.40
43920;DHT22;29578;51.946;5.874;2023-03-19T09:20:37;12.40;84.00
43920;DHT22;29578;51.946;5.874;2023-03-19T09:23:03;12.50;83.10
43920;DHT22;29578;51.946;5.874;2023-03-19T09:25:28;12.50;83.70
43920;DHT22;29578;51.946;5.874;2023-03-19T09:27:54;12.50;83.80
43920;DHT22;29578;51.946;5.874;2023-03-19T09:30:20;12.50;83.30
43920;DHT22;29578;51.946;5.874;2023-03-19T09:32:46;12.60;83.20
43920;DHT22;29578;51.946;5.874;2023-03-19T09:35:11;12.70;83.20
43920;DHT22;29578;51.946;5.874;2023-03-19T09:37:37;12.80;83.00
43920;DHT22;29578;51.946;5.874;2023-03-19T09:40:03;12.80;82.90
43920;DHT22;29578;51.946;5.874;2023-03-19T09:42:38;13.00;82.70
43920;DHT22;29578;51.946;5.874;2023-03-19T09:45:13;13.00;82.50
43920;DHT22;29578;51.946;5.874;2023-03-19T09:47:40;13.10;82.30
43920;DHT22;29578;51.946;5.874;2023-03-19T09:50:15;13.10;82.30
43920;DHT22;29578;51.946;5.874;2023-03-19T09:55:27;13.10;82.60
43920;DHT22;29578;51.946;5.874;2023-03-19T09:57:55;13.30;82.70
43920;DHT22;29578;51.946;5.874;2023-03-19T10:00:23;13.50;82.50
43920;DHT22;29578;51.946;5.874;2023-03-19T10:02:52;13.50;82.30
43920;DHT22;29578;51.946;5.874;2023-03-19T10:05:21;13.60;82.20
43920;DHT22;29578;51.946;5.874;2023-03-19T10:08:13;13.70;82.00
43920;DHT22;29578;51.946;5.874;2023-03-19T10:10:42;13.80;81.80
43920;DHT22;29578;51.946;5.874;2023-03-19T10:15:55;14.00;81.50
43920;DHT22;29578;51.946;5.874;2023-03-19T10:18:22;14.10;81.20
43920;DHT22;29578;51.946;5.874;2023-03-19T10:23:36;14.10;81.00
43920;DHT22;29578;51.946;5.874;2023-03-19T10:26:04;14.00;81.10
43920;DHT22;29578;51.946;5.874;2023-03-19T10:28:30;14.00;81.40
43920;DHT22;29578;51.946;5.874;2023-03-19T10:31:06;14.10;81.40
43920;DHT22;29578;51.946;5.874;2023-03-19T10:36:12;14.30;81.20
43920;DHT22;29578;51.946;5.874;2023-03-19T10:38:40;14.40;81.20
43920;DHT22;29578;51.946;5.874;2023-03-19T10:43:52;14.50;80.70
43920;DHT22;29578;51.946;5.874;2023-03-19T10:46:18;14.50;80.80
43920;DHT22;29578;51.946;5.874;2023-03-19T10:48:45;14.60;80.80
43920;DHT22;29578;51.946;5.874;2023-03-19T10:51:15;14.60;80.80
43920;DHT22;29578;51.946;5.874;2023-03-19T10:53:41;14.50;80.80
43920;DHT22;29578;51.946;5.874;2023-03-19T10:56:23;14.50;81.00
43920;DHT22;29578;51.946;5.874;2023-03-19T10:59:05;14.60;81.10
43920;DHT22;29578;51.946;5.874;2023-03-19T11:01:33;14.50;81.00
43920;DHT22;29578;51.946;5.874;2023-03-19T11:03:59;14.50;81.10
43920;DHT22;29578;51.946;5.874;2023-03-19T11:06:30;14.50;81.20
43920;DHT22;29578;51.946;5.874;2023-03-19T11:08:56;14.60;81.10
43920;DHT22;29578;51.946;5.874;2023-03-19T11:11:23;14.60;81.10
43920;DHT22;29578;51.946;5.874;2023-03-19T11:13:50;14.60;81.10
43920;DHT22;29578;51.946;5.874;2023-03-19T11:16:15;14.50;81.20
43920;DHT22;29578;51.946;5.874;2023-03-19T11:18:41;14.60;81.20
43920;DHT22;29578;51.946;5.874;2023-03-19T11:23:59;14.80;81.10
43920;DHT22;29578;51.946;5.874;2023-03-19T11:26:25;14.90;80.90
43920;DHT22;29578;51.946;5.874;2023-03-19T11:28:53;14.90;80.90
43920;DHT22;29578;51.946;5.874;2023-03-19T11:31:25;14.90;80.50
43920;DHT22;29578;51.946;5.874;2023-03-19T11:36:53;15.10;80.50
43920;DHT22;29578;51.946;5.874;2023-03-19T11:44:42;15.00;80.40
43920;DHT22;29578;51.946;5.874;2023-03-19T11:52:34;15.10;80.30
43920;DHT22;29578;51.946;5.874;2023-03-19T11:55:07;15.30;80.40
43920;DHT22;29578;51.946;5.874;2023-03-19T12:05:43;15.00;80.40
43920;DHT22;29578;51.946;5.874;2023-03-19T12:08:14;15.10;80.50
43920;DHT22;29578;51.946;5.874;2023-03-19T12:10:43;15.10;80.20
43920;DHT22;29578;51.946;5.874;2023-03-19T12:13:28;15.00;80.20
43920;DHT22;29578;51.946;5.874;2023-03-19T12:21:24;14.50;81.60
43920;DHT22;29578;51.946;5.874;2023-03-19T12:23:58;14.40;81.80
43920;DHT22;29578;51.946;5.874;2023-03-19T12:26:30;14.30;82.00
43920;DHT22;29578;51.946;5.874;2023-03-19T12:29:02;14.40;82.20
43920;DHT22;29578;51.946;5.874;2023-03-19T12:31:33;14.50;82.10
43920;DHT22;29578;51.946;5.874;2023-03-19T12:36:46;14.70;81.30
43920;DHT22;29578;51.946;5.874;2023-03-19T12:39:14;14.90;81.00
43920;DHT22;29578;51.946;5.874;2023-03-19T12:41:42;14.90;80.90
43920;DHT22;29578;51.946;5.874;2023-03-19T12:44:12;14.90;80.80
43920;DHT22;29578;51.946;5.874;2023-03-19T12:46:40;14.90;80.40
43920;DHT22;29578;51.946;5.874;2023-03-19T12:49:13;15.00;80.60
43920;DHT22;29578;51.946;5.874;2023-03-19T12:51:43;15.00;80.60
43920;DHT22;29578;51.946;5.874;2023-03-19T12:54:17;15.00;80.60
43920;DHT22;29578;51.946;5.874;2023-03-19T12:56:55;15.10;80.60
43920;DHT22;29578;51.946;5.874;2023-03-19T12:59:32;15.00;80.50
43920;DHT22;29578;51.946;5.874;2023-03-19T13:02:02;15.00;80.60
43920;DHT22;29578;51.946;5.874;2023-03-19T13:04:34;15.00;80.70
43920;DHT22;29578;51.946;5.874;2023-03-19T13:07:04;15.10;80.80
43920;DHT22;29578;51.946;5.874;2023-03-19T13:12:16;15.30;80.50
43920;DHT22;29578;51.946;5.874;2023-03-19T13:17:36;15.50;79.90
43920;DHT22;29578;51.946;5.874;2023-03-19T13:20:12;15.60;79.70
43920;DHT22;29578;51.946;5.874;2023-03-19T13:22:41;15.70;79.70
43920;DHT22;29578;51.946;5.874;2023-03-19T13:25:09;15.90;79.50
43920;DHT22;29578;51.946;5.874;2023-03-19T13:27:39;16.00;79.00
43920;DHT22;29578;51.946;5.874;2023-03-19T13:30:16;15.90;78.70
43920;DHT22;29578;51.946;5.874;2023-03-19T13:32:47;15.90;79.10
43920;DHT22;29578;51.946;5.874;2023-03-19T13:38:01;15.80;79.10
43920;DHT22;29578;51.946;5.874;2023-03-19T13:40:36;15.80;79.40
43920;DHT22;29578;51.946;5.874;2023-03-19T13:43:02;15.70;79.60
43920;DHT22;29578;51.946;5.874;2023-03-19T13:45:30;15.70;79.80
43920;DHT22;29578;51.946;5.874;2023-03-19T13:48:21;15.80;79.80
43920;DHT22;29578;51.946;5.874;2023-03-19T13:53:34;15.60;79.90
43920;DHT22;29578;51.946;5.874;2023-03-19T13:56:02;15.50;80.20
43920;DHT22;29578;51.946;5.874;2023-03-19T13:58:28;15.50;80.40
43920;DHT22;29578;51.946;5.874;2023-03-19T14:03:52;15.40;80.20
43920;DHT22;29578;51.946;5.874;2023-03-19T14:06:37;15.20;80.70
43920;DHT22;29578;51.946;5.874;2023-03-19T14:09:04;15.00;80.90
43920;DHT22;29578;51.946;5.874;2023-03-19T14:11:32;15.00;81.00
43920;DHT22;29578;51.946;5.874;2023-03-19T14:14:00;14.90;81.10
43920;DHT22;29578;51.946;5.874;2023-03-19T14:16:35;15.00;81.20
43920;DHT22;29578;51.946;5.874;2023-03-19T14:19:02;15.00;80.90
43920;DHT22;29578;51.946;5.874;2023-03-19T14:21:32;15.00;80.90
43920;DHT22;29578;51.946;5.874;2023-03-19T14:24:19;15.00;80.80
43920;DHT22;29578;51.946;5.874;2023-03-19T14:26:44;15.00;80.80
43920;DHT22;29578;51.946;5.874;2023-03-19T14:29:12;15.00;80.80
43920;DHT22;29578;51.946;5.874;2023-03-19T14:31:42;15.00;80.60
43920;DHT22;29578;51.946;5.874;2023-03-19T14:34:14;15.10;80.60
43920;DHT22;29578;51.946;5.874;2023-03-19T14:36:44;15.20;80.30
43920;DHT22;29578;51.946;5.874;2023-03-19T14:39:15;15.30;80.10
43920;DHT22;29578;51.946;5.874;2023-03-19T14:41:42;15.20;80.10
43920;DHT22;29578;51.946;5.874;2023-03-19T14:47:01;15.30;79.90
43920;DHT22;29578;51.946;5.874;2023-03-19T14:49:46;15.20;79.80
43920;DHT22;29578;51.946;5.874;2023-03-19T14:55:00;15.10;80.20
43920;DHT22;29578;51.946;5.874;2023-03-19T14:57:27;15.10;80.00
43920;DHT22;29578;51.946;5.874;2023-03-19T14:59:53;15.20;80.10
43920;DHT22;29578;51.946;5.874;2023-03-19T15:02:36;15.00;80.10
43920;DHT22;29578;51.946;5.874;2023-03-19T15:05:03;15.10;80.10
43920;DHT22;29578;51.946;5.874;2023-03-19T15:07:33;15.00;80.30
43920;DHT22;29578;51.946;5.874;2023-03-19T15:10:00;14.90;80.30
43920;DHT22;29578;51.946;5.874;2023-03-19T15:17:43;14.90;80.40
43920;DHT22;29578;51.946;5.874;2023-03-19T15:20:14;14.90;80.50
43920;DHT22;29578;51.946;5.874;2023-03-19T15:22:41;14.80;80.30
43920;DHT22;29578;51.946;5.874;2023-03-19T15:25:09;14.90;80.70
43920;DHT22;29578;51.946;5.874;2023-03-19T15:27:35;14.80;80.30
43920;DHT22;29578;51.946;5.874;2023-03-19T15:30:01;14.80;80.50
43920;DHT22;29578;51.946;5.874;2023-03-19T15:32:30;14.70;80.40
43920;DHT22;29578;51.946;5.874;2023-03-19T15:34:56;14.70;80.40
43920;DHT22;29578;51.946;5.874;2023-03-19T15:37:22;14.70;80.40
43920;DHT22;29578;51.946;5.874;2023-03-19T15:39:48;14.70;80.30
43920;DHT22;29578;51.946;5.874;2023-03-19T15:42:15;14.70;80.20
43920;DHT22;29578;51.946;5.874;2023-03-19T15:44:43;14.60;80.30
43920;DHT22;29578;51.946;5.874;2023-03-19T15:47:12;14.60;81.30
43920;DHT22;29578;51.946;5.874;2023-03-19T15:49:42;15.10;80.00
43920;DHT22;29578;51.946;5.874;2023-03-19T15:52:20;15.20;78.30
43920;DHT22;29578;51.946;5.874;2023-03-19T15:54:46;14.90;78.60
43920;DHT22;29578;51.946;5.874;2023-03-19T15:57:12;14.80;79.10
43920;DHT22;29578;51.946;5.874;2023-03-19T15:59:39;14.60;79.60
43920;DHT22;29578;51.946;5.874;2023-03-19T16:02:13;14.50;80.10
43920;DHT22;29578;51.946;5.874;2023-03-19T16:04:43;14.30;80.40
43920;DHT22;29578;51.946;5.874;2023-03-19T16:07:19;14.30;80.80
43920;DHT22;29578;51.946;5.874;2023-03-19T16:09:45;14.20;80.80
43920;DHT22;29578;51.946;5.874;2023-03-19T16:12:26;14.20;80.90
43920;DHT22;29578;51.946;5.874;2023-03-19T16:14:54;14.30;81.00
43920;DHT22;29578;51.946;5.874;2023-03-19T16:17:20;14.20;80.90
43920;DHT22;29578;51.946;5.874;2023-03-19T16:19:52;14.10;80.90
43920;DHT22;29578;51.946;5.874;2023-03-19T16:22:20;14.10;81.00
43920;DHT22;29578;51.946;5.874;2023-03-19T16:24:46;14.10;81.00
43920;DHT22;29578;51.946;5.874;2023-03-19T16:27:17;14.10;81.10
43920;DHT22;29578;51.946;5.874;2023-03-19T16:29:44;14.00;81.00
43920;DHT22;29578;51.946;5.874;2023-03-19T16:32:16;14.00;81.00
43920;DHT22;29578;51.946;5.874;2023-03-19T16:34:44;14.00;81.00
43920;DHT22;29578;51.946;5.874;2023-03-19T16:39:52;14.10;80.90
43920;DHT22;29578;51.946;5.874;2023-03-19T16:42:26;14.20;80.70
43920;DHT22;29578;51.946;5.874;2023-03-19T16:44:52;14.50;80.10
43920;DHT22;29578;51.946;5.874;2023-03-19T16:47:17;14.60;79.30
43920;DHT22;29578;51.946;5.874;2023-03-19T16:49:45;14.70;79.20